Terminal Aerodrome Forecast
Issued by NWS

Home | Current Version | Previous Version | Text Only | Print | Product List | Glossary On
Versions: 1 2 3 4 5 6 7 8 9 10 11 12 13 14 15 16 17
632
FTUS46 KSTO 051728
TAFSCK
TAF
KSCK 051728Z 0518/0618 VRB04KT 2SM BR SCT002 BKN007
     FM051930 30008KT P6SM BKN250
     FM061100 32003KT 3SM BCFG SCT002
     FM061300 VRB02KT 1/2SM FG VV002=

USA.gov is the U.S. government's official web portal to all federal, state and local government web resources and services.